sensor_id;sensor_type;location;lat;lon;timestamp;P1;durP1;ratioP1;P2;durP2;ratioP2
15553;SDS011;7878;44.632;10.942;2023-02-28T00:00:20;13.13;;;6.90;;
15553;SDS011;7878;44.632;10.942;2023-02-28T00:02:47;9.57;;;6.60;;
15553;SDS011;7878;44.632;10.942;2023-02-28T00:05:14;11.93;;;6.90;;
15553;SDS011;7878;44.632;10.942;2023-02-28T00:07:42;13.03;;;6.57;;
15553;SDS011;7878;44.632;10.942;2023-02-28T00:10:08;11.73;;;6.43;;
15553;SDS011;7878;44.632;10.942;2023-02-28T00:12:36;10.87;;;6.83;;
15553;SDS011;7878;44.632;10.942;2023-02-28T00:15:05;18.43;;;7.17;;
15553;SDS011;7878;44.632;10.942;2023-02-28T00:17:32;15.97;;;6.80;;
15553;SDS011;7878;44.632;10.942;2023-02-28T00:19:57;12.93;;;6.70;;
15553;SDS011;7878;44.632;10.942;2023-02-28T00:22:37;12.30;;;6.70;;
15553;SDS011;7878;44.632;10.942;2023-02-28T00:25:04;13.57;;;6.77;;
15553;SDS011;7878;44.632;10.942;2023-02-28T00:27:31;15.97;;;6.83;;
15553;SDS011;7878;44.632;10.942;2023-02-28T00:29:57;13.33;;;6.50;;
15553;SDS011;7878;44.632;10.942;2023-02-28T00:32:23;12.30;;;6.60;;
15553;SDS011;7878;44.632;10.942;2023-02-28T00:34:49;8.83;;;6.10;;
15553;SDS011;7878;44.632;10.942;2023-02-28T00:37:15;13.57;;;5.43;;
15553;SDS011;7878;44.632;10.942;2023-02-28T00:39:40;12.10;;;6.30;;
15553;SDS011;7878;44.632;10.942;2023-02-28T00:42:06;10.67;;;5.90;;
15553;SDS011;7878;44.632;10.942;2023-02-28T00:44:32;10.73;;;5.80;;
15553;SDS011;7878;44.632;10.942;2023-02-28T00:46:58;8.03;;;5.13;;
15553;SDS011;7878;44.632;10.942;2023-02-28T00:49:24;10.17;;;5.20;;
15553;SDS011;7878;44.632;10.942;2023-02-28T00:51:51;10.27;;;6.17;;
15553;SDS011;7878;44.632;10.942;2023-02-28T00:54:17;13.27;;;5.70;;
15553;SDS011;7878;44.632;10.942;2023-02-28T00:56:43;12.57;;;5.27;;
15553;SDS011;7878;44.632;10.942;2023-02-28T00:59:08;11.63;;;5.60;;
15553;SDS011;7878;44.632;10.942;2023-02-28T01:01:34;7.60;;;5.67;;
15553;SDS011;7878;44.632;10.942;2023-02-28T01:04:00;8.40;;;5.53;;
15553;SDS011;7878;44.632;10.942;2023-02-28T01:06:25;14.70;;;6.00;;
15553;SDS011;7878;44.632;10.942;2023-02-28T01:08:51;17.90;;;6.13;;
15553;SDS011;7878;44.632;10.942;2023-02-28T01:11:17;9.97;;;5.10;;
15553;SDS011;7878;44.632;10.942;2023-02-28T01:13:43;9.83;;;5.60;;
15553;SDS011;7878;44.632;10.942;2023-02-28T01:16:10;10.23;;;5.77;;
15553;SDS011;7878;44.632;10.942;2023-02-28T01:18:37;9.40;;;5.23;;
15553;SDS011;7878;44.632;10.942;2023-02-28T01:21:06;11.70;;;6.07;;
15553;SDS011;7878;44.632;10.942;2023-02-28T01:23:37;11.30;;;5.43;;
15553;SDS011;7878;44.632;10.942;2023-02-28T01:26:08;7.47;;;5.57;;
15553;SDS011;7878;44.632;10.942;2023-02-28T01:28:44;7.50;;;5.23;;
15553;SDS011;7878;44.632;10.942;2023-02-28T01:31:10;9.73;;;5.30;;
15553;SDS011;7878;44.632;10.942;2023-02-28T01:33:36;11.67;;;5.37;;
15553;SDS011;7878;44.632;10.942;2023-02-28T01:36:03;7.93;;;5.33;;
15553;SDS011;7878;44.632;10.942;2023-02-28T01:38:31;9.67;;;5.97;;
15553;SDS011;7878;44.632;10.942;2023-02-28T01:40:58;12.37;;;5.60;;
15553;SDS011;7878;44.632;10.942;2023-02-28T01:43:25;7.43;;;5.00;;
15553;SDS011;7878;44.632;10.942;2023-02-28T01:45:52;7.67;;;5.20;;
15553;SDS011;7878;44.632;10.942;2023-02-28T01:48:21;6.63;;;4.87;;
15553;SDS011;7878;44.632;10.942;2023-02-28T01:50:52;6.97;;;5.13;;
15553;SDS011;7878;44.632;10.942;2023-02-28T01:53:22;8.70;;;5.67;;
15553;SDS011;7878;44.632;10.942;2023-02-28T01:55:54;12.73;;;5.80;;
15553;SDS011;7878;44.632;10.942;2023-02-28T01:58:21;9.13;;;5.43;;
15553;SDS011;7878;44.632;10.942;2023-02-28T02:00:46;7.73;;;5.20;;
15553;SDS011;7878;44.632;10.942;2023-02-28T02:03:13;8.00;;;5.37;;
15553;SDS011;7878;44.632;10.942;2023-02-28T02:05:43;6.57;;;5.03;;
15553;SDS011;7878;44.632;10.942;2023-02-28T02:08:13;6.47;;;5.27;;
15553;SDS011;7878;44.632;10.942;2023-02-28T02:10:43;10.03;;;5.87;;
15553;SDS011;7878;44.632;10.942;2023-02-28T02:16:04;8.07;;;5.83;;
15553;SDS011;7878;44.632;10.942;2023-02-28T02:18:52;6.83;;;5.13;;
15553;SDS011;7878;44.632;10.942;2023-02-28T02:37:27;8.43;;;5.97;;
15553;SDS011;7878;44.632;10.942;2023-02-28T02:40:41;10.87;;;5.80;;
15553;SDS011;7878;44.632;10.942;2023-02-28T02:42:49;7.10;;;4.57;;
15553;SDS011;7878;44.632;10.942;2023-02-28T02:45:44;9.53;;;6.03;;
15553;SDS011;7878;44.632;10.942;2023-02-28T02:48:23;7.60;;;5.17;;
15553;SDS011;7878;44.632;10.942;2023-02-28T02:50:54;5.73;;;4.97;;
15553;SDS011;7878;44.632;10.942;2023-02-28T02:53:24;9.10;;;5.67;;
15553;SDS011;7878;44.632;10.942;2023-02-28T02:55:55;7.73;;;5.83;;
15553;SDS011;7878;44.632;10.942;2023-02-28T02:58:24;9.67;;;5.90;;
15553;SDS011;7878;44.632;10.942;2023-02-28T03:00:56;7.73;;;5.80;;
15553;SDS011;7878;44.632;10.942;2023-02-28T03:03:25;13.20;;;5.47;;
15553;SDS011;7878;44.632;10.942;2023-02-28T03:05:55;8.10;;;5.50;;
15553;SDS011;7878;44.632;10.942;2023-02-28T03:08:23;9.27;;;5.33;;
15553;SDS011;7878;44.632;10.942;2023-02-28T03:10:50;7.97;;;5.23;;
15553;SDS011;7878;44.632;10.942;2023-02-28T03:16:11;8.27;;;5.60;;
15553;SDS011;7878;44.632;10.942;2023-02-28T03:24:23;6.80;;;5.50;;
15553;SDS011;7878;44.632;10.942;2023-02-28T03:26:57;9.87;;;5.63;;
15553;SDS011;7878;44.632;10.942;2023-02-28T03:29:50;10.87;;;5.87;;
15553;SDS011;7878;44.632;10.942;2023-02-28T03:35:11;10.17;;;6.10;;
15553;SDS011;7878;44.632;10.942;2023-02-28T03:37:46;9.33;;;5.60;;
15553;SDS011;7878;44.632;10.942;2023-02-28T03:40:16;7.30;;;5.97;;
15553;SDS011;7878;44.632;10.942;2023-02-28T03:42:46;7.50;;;5.70;;
15553;SDS011;7878;44.632;10.942;2023-02-28T03:45:18;7.63;;;5.87;;
15553;SDS011;7878;44.632;10.942;2023-02-28T03:48:31;7.60;;;6.20;;
15553;SDS011;7878;44.632;10.942;2023-02-28T03:50:55;9.97;;;5.77;;
15553;SDS011;7878;44.632;10.942;2023-02-28T03:53:32;10.07;;;6.03;;
15553;SDS011;7878;44.632;10.942;2023-02-28T03:56:25;7.03;;;5.90;;
15553;SDS011;7878;44.632;10.942;2023-02-28T04:01:39;7.17;;;5.80;;
15553;SDS011;7878;44.632;10.942;2023-02-28T04:04:09;10.93;;;6.53;;
15553;SDS011;7878;44.632;10.942;2023-02-28T04:06:36;9.00;;;6.73;;
15553;SDS011;7878;44.632;10.942;2023-02-28T04:09:02;8.30;;;6.57;;
15553;SDS011;7878;44.632;10.942;2023-02-28T04:14:03;12.03;;;6.70;;
15553;SDS011;7878;44.632;10.942;2023-02-28T04:16:30;9.17;;;6.33;;
15553;SDS011;7878;44.632;10.942;2023-02-28T04:18:57;6.90;;;5.93;;
15553;SDS011;7878;44.632;10.942;2023-02-28T04:21:30;13.10;;;6.97;;
15553;SDS011;7878;44.632;10.942;2023-02-28T04:23:56;9.70;;;6.27;;
15553;SDS011;7878;44.632;10.942;2023-02-28T04:26:25;9.73;;;6.40;;
15553;SDS011;7878;44.632;10.942;2023-02-28T04:28:58;11.83;;;6.47;;
15553;SDS011;7878;44.632;10.942;2023-02-28T04:31:25;8.50;;;6.17;;
15553;SDS011;7878;44.632;10.942;2023-02-28T04:33:51;11.03;;;6.23;;
15553;SDS011;7878;44.632;10.942;2023-02-28T04:36:17;9.80;;;6.40;;
15553;SDS011;7878;44.632;10.942;2023-02-28T04:38:43;7.80;;;5.73;;
15553;SDS011;7878;44.632;10.942;2023-02-28T04:41:10;8.07;;;6.10;;
15553;SDS011;7878;44.632;10.942;2023-02-28T04:43:36;10.10;;;6.67;;
15553;SDS011;7878;44.632;10.942;2023-02-28T04:46:03;9.03;;;6.30;;
15553;SDS011;7878;44.632;10.942;2023-02-28T04:48:31;10.27;;;6.40;;
15553;SDS011;7878;44.632;10.942;2023-02-28T04:51:04;7.00;;;5.87;;
15553;SDS011;7878;44.632;10.942;2023-02-28T04:53:32;8.13;;;5.40;;
15553;SDS011;7878;44.632;10.942;2023-02-28T04:55:58;7.20;;;5.90;;
15553;SDS011;7878;44.632;10.942;2023-02-28T04:58:24;9.47;;;6.80;;
15553;SDS011;7878;44.632;10.942;2023-02-28T05:00:51;9.53;;;6.43;;
15553;SDS011;7878;44.632;10.942;2023-02-28T05:03:18;10.13;;;6.30;;
15553;SDS011;7878;44.632;10.942;2023-02-28T05:05:45;8.47;;;6.43;;
15553;SDS011;7878;44.632;10.942;2023-02-28T05:08:11;9.40;;;6.57;;
15553;SDS011;7878;44.632;10.942;2023-02-28T05:10:37;8.27;;;6.50;;
15553;SDS011;7878;44.632;10.942;2023-02-28T05:13:03;9.00;;;6.53;;
15553;SDS011;7878;44.632;10.942;2023-02-28T05:15:29;9.27;;;6.47;;
15553;SDS011;7878;44.632;10.942;2023-02-28T05:17:54;15.73;;;6.53;;
15553;SDS011;7878;44.632;10.942;2023-02-28T05:20:20;11.60;;;6.57;;
15553;SDS011;7878;44.632;10.942;2023-02-28T05:22:46;15.70;;;6.50;;
15553;SDS011;7878;44.632;10.942;2023-02-28T05:25:12;8.00;;;6.17;;
15553;SDS011;7878;44.632;10.942;2023-02-28T05:27:41;8.67;;;6.73;;
15553;SDS011;7878;44.632;10.942;2023-02-28T05:30:07;8.83;;;6.53;;
15553;SDS011;7878;44.632;10.942;2023-02-28T05:32:35;9.97;;;6.40;;
15553;SDS011;7878;44.632;10.942;2023-02-28T05:35:01;11.00;;;6.73;;
15553;SDS011;7878;44.632;10.942;2023-02-28T05:37:27;8.63;;;6.77;;
15553;SDS011;7878;44.632;10.942;2023-02-28T05:39:53;13.07;;;6.47;;
15553;SDS011;7878;44.632;10.942;2023-02-28T05:42:19;11.07;;;7.03;;
15553;SDS011;7878;44.632;10.942;2023-02-28T05:44:44;8.73;;;6.67;;
15553;SDS011;7878;44.632;10.942;2023-02-28T05:47:10;33.70;;;20.07;;
15553;SDS011;7878;44.632;10.942;2023-02-28T05:49:37;11.67;;;6.67;;
15553;SDS011;7878;44.632;10.942;2023-02-28T05:52:03;12.70;;;7.07;;
15553;SDS011;7878;44.632;10.942;2023-02-28T05:54:29;10.37;;;6.90;;
15553;SDS011;7878;44.632;10.942;2023-02-28T05:56:54;13.07;;;9.57;;
15553;SDS011;7878;44.632;10.942;2023-02-28T05:59:20;12.53;;;9.10;;
15553;SDS011;7878;44.632;10.942;2023-02-28T06:01:46;12.67;;;6.60;;
15553;SDS011;7878;44.632;10.942;2023-02-28T06:04:15;10.80;;;7.33;;
15553;SDS011;7878;44.632;10.942;2023-02-28T06:06:44;9.20;;;6.37;;
15553;SDS011;7878;44.632;10.942;2023-02-28T06:09:10;8.93;;;6.43;;
15553;SDS011;7878;44.632;10.942;2023-02-28T06:11:36;12.00;;;7.03;;
15553;SDS011;7878;44.632;10.942;2023-02-28T06:14:03;12.00;;;7.07;;
15553;SDS011;7878;44.632;10.942;2023-02-28T06:16:30;14.20;;;7.43;;
15553;SDS011;7878;44.632;10.942;2023-02-28T06:18:57;10.73;;;7.23;;
15553;SDS011;7878;44.632;10.942;2023-02-28T06:21:25;14.17;;;6.90;;
15553;SDS011;7878;44.632;10.942;2023-02-28T06:23:52;10.27;;;6.90;;
15553;SDS011;7878;44.632;10.942;2023-02-28T06:26:19;12.50;;;6.90;;
15553;SDS011;7878;44.632;10.942;2023-02-28T06:28:45;10.93;;;6.63;;
15553;SDS011;7878;44.632;10.942;2023-02-28T06:31:14;9.70;;;6.93;;
15553;SDS011;7878;44.632;10.942;2023-02-28T06:33:40;17.43;;;7.33;;
15553;SDS011;7878;44.632;10.942;2023-02-28T06:36:08;10.97;;;7.40;;
15553;SDS011;7878;44.632;10.942;2023-02-28T06:38:35;13.27;;;7.53;;
15553;SDS011;7878;44.632;10.942;2023-02-28T06:41:01;9.57;;;6.70;;
15553;SDS011;7878;44.632;10.942;2023-02-28T06:43:29;11.87;;;7.33;;
15553;SDS011;7878;44.632;10.942;2023-02-28T06:45:56;12.53;;;7.63;;
15553;SDS011;7878;44.632;10.942;2023-02-28T06:48:23;11.47;;;7.10;;
15553;SDS011;7878;44.632;10.942;2023-02-28T06:50:50;18.87;;;7.80;;
15553;SDS011;7878;44.632;10.942;2023-02-28T06:53:16;12.53;;;7.67;;
15553;SDS011;7878;44.632;10.942;2023-02-28T06:55:42;13.43;;;7.30;;
15553;SDS011;7878;44.632;10.942;2023-02-28T06:58:08;14.17;;;7.23;;
15553;SDS011;7878;44.632;10.942;2023-02-28T07:00:42;8.60;;;7.03;;
15553;SDS011;7878;44.632;10.942;2023-02-28T07:03:09;15.77;;;7.53;;
15553;SDS011;7878;44.632;10.942;2023-02-28T07:05:36;15.20;;;8.27;;
15553;SDS011;7878;44.632;10.942;2023-02-28T07:08:03;11.50;;;7.40;;
15553;SDS011;7878;44.632;10.942;2023-02-28T07:10:29;9.90;;;7.10;;
15553;SDS011;7878;44.632;10.942;2023-02-28T07:12:55;12.00;;;7.07;;
15553;SDS011;7878;44.632;10.942;2023-02-28T07:15:22;15.30;;;7.50;;
15553;SDS011;7878;44.632;10.942;2023-02-28T07:17:47;19.47;;;7.87;;
15553;SDS011;7878;44.632;10.942;2023-02-28T07:20:13;10.93;;;7.23;;
15553;SDS011;7878;44.632;10.942;2023-02-28T07:22:39;11.10;;;7.23;;
15553;SDS011;7878;44.632;10.942;2023-02-28T07:25:05;11.77;;;7.27;;
15553;SDS011;7878;44.632;10.942;2023-02-28T07:27:31;11.47;;;7.30;;
15553;SDS011;7878;44.632;10.942;2023-02-28T07:29:56;11.03;;;7.10;;
15553;SDS011;7878;44.632;10.942;2023-02-28T07:32:22;10.93;;;7.13;;
15553;SDS011;7878;44.632;10.942;2023-02-28T07:34:48;13.67;;;6.97;;
15553;SDS011;7878;44.632;10.942;2023-02-28T07:37:14;10.07;;;7.30;;
15553;SDS011;7878;44.632;10.942;2023-02-28T07:39:40;12.13;;;7.33;;
15553;SDS011;7878;44.632;10.942;2023-02-28T07:42:08;14.50;;;7.73;;
15553;SDS011;7878;44.632;10.942;2023-02-28T07:44:36;13.03;;;7.17;;
15553;SDS011;7878;44.632;10.942;2023-02-28T07:47:08;13.97;;;7.43;;
15553;SDS011;7878;44.632;10.942;2023-02-28T07:49:35;9.73;;;7.53;;
15553;SDS011;7878;44.632;10.942;2023-02-28T07:52:02;9.63;;;6.50;;
15553;SDS011;7878;44.632;10.942;2023-02-28T07:54:32;9.63;;;7.40;;
15553;SDS011;7878;44.632;10.942;2023-02-28T07:56:58;10.97;;;7.17;;
15553;SDS011;7878;44.632;10.942;2023-02-28T07:59:24;9.87;;;6.57;;
15553;SDS011;7878;44.632;10.942;2023-02-28T08:01:50;10.70;;;7.50;;
15553;SDS011;7878;44.632;10.942;2023-02-28T08:04:16;13.97;;;7.50;;
15553;SDS011;7878;44.632;10.942;2023-02-28T08:06:43;12.93;;;8.00;;
15553;SDS011;7878;44.632;10.942;2023-02-28T08:09:09;12.80;;;7.63;;
15553;SDS011;7878;44.632;10.942;2023-02-28T08:11:34;9.27;;;7.27;;
15553;SDS011;7878;44.632;10.942;2023-02-28T08:14:01;13.87;;;7.10;;
15553;SDS011;7878;44.632;10.942;2023-02-28T08:16:26;10.47;;;7.13;;
15553;SDS011;7878;44.632;10.942;2023-02-28T08:18:52;12.30;;;6.97;;
15553;SDS011;7878;44.632;10.942;2023-02-28T08:21:19;12.17;;;7.70;;
15553;SDS011;7878;44.632;10.942;2023-02-28T08:23:49;12.00;;;6.67;;
15553;SDS011;7878;44.632;10.942;2023-02-28T08:26:16;10.57;;;6.90;;
15553;SDS011;7878;44.632;10.942;2023-02-28T08:28:42;10.97;;;6.80;;
15553;SDS011;7878;44.632;10.942;2023-02-28T08:31:09;9.77;;;6.03;;
15553;SDS011;7878;44.632;10.942;2023-02-28T08:33:36;14.83;;;8.00;;
15553;SDS011;7878;44.632;10.942;2023-02-28T08:36:04;11.80;;;7.47;;
15553;SDS011;7878;44.632;10.942;2023-02-28T08:38:30;9.23;;;6.87;;
15553;SDS011;7878;44.632;10.942;2023-02-28T08:40:57;18.30;;;7.87;;
15553;SDS011;7878;44.632;10.942;2023-02-28T08:43:23;16.03;;;7.47;;
15553;SDS011;7878;44.632;10.942;2023-02-28T08:45:52;13.70;;;7.33;;
15553;SDS011;7878;44.632;10.942;2023-02-28T08:48:18;10.20;;;7.60;;
15553;SDS011;7878;44.632;10.942;2023-02-28T08:50:44;11.00;;;7.10;;
15553;SDS011;7878;44.632;10.942;2023-02-28T08:53:10;8.90;;;7.20;;
15553;SDS011;7878;44.632;10.942;2023-02-28T08:55:35;9.13;;;6.93;;
15553;SDS011;7878;44.632;10.942;2023-02-28T08:58:01;15.53;;;7.27;;
15553;SDS011;7878;44.632;10.942;2023-02-28T09:00:27;10.00;;;7.73;;
15553;SDS011;7878;44.632;10.942;2023-02-28T09:02:53;9.87;;;7.50;;
15553;SDS011;7878;44.632;10.942;2023-02-28T09:05:19;11.57;;;7.97;;
15553;SDS011;7878;44.632;10.942;2023-02-28T09:07:45;12.77;;;7.23;;
15553;SDS011;7878;44.632;10.942;2023-02-28T09:10:10;13.10;;;7.70;;
15553;SDS011;7878;44.632;10.942;2023-02-28T09:12:36;11.60;;;7.33;;
15553;SDS011;7878;44.632;10.942;2023-02-28T09:15:02;9.77;;;7.93;;
15553;SDS011;7878;44.632;10.942;2023-02-28T09:17:28;14.33;;;7.07;;
15553;SDS011;7878;44.632;10.942;2023-02-28T09:19:54;9.33;;;7.13;;
15553;SDS011;7878;44.632;10.942;2023-02-28T09:22:20;11.80;;;7.23;;
15553;SDS011;7878;44.632;10.942;2023-02-28T09:24:46;11.50;;;7.57;;
15553;SDS011;7878;44.632;10.942;2023-02-28T09:27:11;13.33;;;7.77;;
15553;SDS011;7878;44.632;10.942;2023-02-28T09:29:37;12.63;;;7.37;;
15553;SDS011;7878;44.632;10.942;2023-02-28T09:32:03;12.50;;;8.20;;
15553;SDS011;7878;44.632;10.942;2023-02-28T09:34:30;13.17;;;8.47;;
15553;SDS011;7878;44.632;10.942;2023-02-28T09:36:56;8.93;;;6.73;;
15553;SDS011;7878;44.632;10.942;2023-02-28T09:39:22;15.07;;;7.47;;
15553;SDS011;7878;44.632;10.942;2023-02-28T09:41:49;8.00;;;7.10;;
15553;SDS011;7878;44.632;10.942;2023-02-28T09:44:26;13.50;;;8.23;;
15553;SDS011;7878;44.632;10.942;2023-02-28T09:46:58;10.37;;;7.27;;
15553;SDS011;7878;44.632;10.942;2023-02-28T09:49:35;12.03;;;7.50;;
15553;SDS011;7878;44.632;10.942;2023-02-28T09:52:09;10.97;;;7.50;;
15553;SDS011;7878;44.632;10.942;2023-02-28T09:54:39;10.80;;;7.77;;
15553;SDS011;7878;44.632;10.942;2023-02-28T09:57:50;9.73;;;7.07;;
15553;SDS011;7878;44.632;10.942;2023-02-28T10:05:44;10.80;;;7.77;;
15553;SDS011;7878;44.632;10.942;2023-02-28T10:08:25;11.47;;;7.33;;
15553;SDS011;7878;44.632;10.942;2023-02-28T10:10:57;10.17;;;6.97;;
15553;SDS011;7878;44.632;10.942;2023-02-28T10:16:09;10.20;;;7.30;;
15553;SDS011;7878;44.632;10.942;2023-02-28T10:18:41;15.47;;;7.87;;
15553;SDS011;7878;44.632;10.942;2023-02-28T10:21:20;12.30;;;7.40;;
15553;SDS011;7878;44.632;10.942;2023-02-28T10:23:59;12.27;;;7.67;;
15553;SDS011;7878;44.632;10.942;2023-02-28T10:26:43;10.73;;;7.50;;
15553;SDS011;7878;44.632;10.942;2023-02-28T10:29:12;13.37;;;8.10;;
15553;SDS011;7878;44.632;10.942;2023-02-28T10:31:38;15.10;;;8.13;;
15553;SDS011;7878;44.632;10.942;2023-02-28T10:34:04;23.53;;;11.83;;
15553;SDS011;7878;44.632;10.942;2023-02-28T10:36:31;17.47;;;8.33;;
15553;SDS011;7878;44.632;10.942;2023-02-28T10:38:57;11.03;;;7.97;;
15553;SDS011;7878;44.632;10.942;2023-02-28T10:41:28;11.77;;;9.23;;
15553;SDS011;7878;44.632;10.942;2023-02-28T10:44:19;10.97;;;7.63;;
15553;SDS011;7878;44.632;10.942;2023-02-28T10:46:46;11.50;;;7.20;;
15553;SDS011;7878;44.632;10.942;2023-02-28T10:49:15;13.37;;;8.53;;
15553;SDS011;7878;44.632;10.942;2023-02-28T10:51:47;9.53;;;7.70;;
15553;SDS011;7878;44.632;10.942;2023-02-28T10:54:29;12.13;;;7.37;;
15553;SDS011;7878;44.632;10.942;2023-02-28T10:57:19;11.17;;;7.70;;
15553;SDS011;7878;44.632;10.942;2023-02-28T10:59:52;12.33;;;8.60;;
15553;SDS011;7878;44.632;10.942;2023-02-28T11:02:38;11.70;;;8.97;;
15553;SDS011;7878;44.632;10.942;2023-02-28T11:07:55;12.17;;;7.73;;
15553;SDS011;7878;44.632;10.942;2023-02-28T11:10:44;14.67;;;8.27;;
15553;SDS011;7878;44.632;10.942;2023-02-28T11:13:19;12.30;;;7.20;;
15553;SDS011;7878;44.632;10.942;2023-02-28T11:15:51;9.20;;;7.43;;
15553;SDS011;7878;44.632;10.942;2023-02-28T11:20:58;12.77;;;7.27;;
15553;SDS011;7878;44.632;10.942;2023-02-28T11:23:26;13.00;;;8.10;;
15553;SDS011;7878;44.632;10.942;2023-02-28T11:25:59;14.23;;;7.73;;
15553;SDS011;7878;44.632;10.942;2023-02-28T11:28:28;12.20;;;7.80;;
15553;SDS011;7878;44.632;10.942;2023-02-28T11:33:54;16.00;;;8.30;;
15553;SDS011;7878;44.632;10.942;2023-02-28T11:36:22;15.37;;;8.10;;
15553;SDS011;7878;44.632;10.942;2023-02-28T11:38:50;12.63;;;8.10;;
15553;SDS011;7878;44.632;10.942;2023-02-28T12:08:47;15.37;;;7.97;;
15553;SDS011;7878;44.632;10.942;2023-02-28T12:19:45;17.70;;;9.10;;
15553;SDS011;7878;44.632;10.942;2023-02-28T12:25:20;9.80;;;7.73;;
15553;SDS011;7878;44.632;10.942;2023-02-28T12:28:01;14.73;;;9.60;;
15553;SDS011;7878;44.632;10.942;2023-02-28T12:30:31;11.50;;;8.33;;
15553;SDS011;7878;44.632;10.942;2023-02-28T12:33:03;13.97;;;9.17;;
15553;SDS011;7878;44.632;10.942;2023-02-28T12:35:39;12.03;;;10.80;;
15553;SDS011;7878;44.632;10.942;2023-02-28T12:38:17;15.87;;;10.73;;
15553;SDS011;7878;44.632;10.942;2023-02-28T12:40:49;16.87;;;11.07;;
15553;SDS011;7878;44.632;10.942;2023-02-28T12:43:19;17.20;;;10.80;;
15553;SDS011;7878;44.632;10.942;2023-02-28T12:45:58;14.73;;;10.40;;
15553;SDS011;7878;44.632;10.942;2023-02-28T12:48:31;16.87;;;11.47;;
15553;SDS011;7878;44.632;10.942;2023-02-28T12:51:34;14.47;;;10.80;;
15553;SDS011;7878;44.632;10.942;2023-02-28T12:54:07;14.73;;;11.57;;
15553;SDS011;7878;44.632;10.942;2023-02-28T12:57:06;48.03;;;15.33;;
15553;SDS011;7878;44.632;10.942;2023-02-28T12:59:52;16.77;;;10.60;;
15553;SDS011;7878;44.632;10.942;2023-02-28T13:02:32;14.17;;;10.93;;
15553;SDS011;7878;44.632;10.942;2023-02-28T13:10:58;18.47;;;10.43;;
15553;SDS011;7878;44.632;10.942;2023-02-28T13:13:25;14.63;;;10.57;;
15553;SDS011;7878;44.632;10.942;2023-02-28T13:16:05;17.67;;;10.80;;
15553;SDS011;7878;44.632;10.942;2023-02-28T13:18:42;15.63;;;11.30;;
15553;SDS011;7878;44.632;10.942;2023-02-28T13:21:17;15.17;;;11.53;;
15553;SDS011;7878;44.632;10.942;2023-02-28T13:23:58;19.20;;;13.87;;
15553;SDS011;7878;44.632;10.942;2023-02-28T13:28:59;13.97;;;11.73;;
15553;SDS011;7878;44.632;10.942;2023-02-28T13:31:27;14.37;;;10.47;;
15553;SDS011;7878;44.632;10.942;2023-02-28T13:36:28;15.07;;;10.03;;
15553;SDS011;7878;44.632;10.942;2023-02-28T13:41:44;13.23;;;10.60;;
15553;SDS011;7878;44.632;10.942;2023-02-28T13:44:14;14.03;;;10.67;;
15553;SDS011;7878;44.632;10.942;2023-02-28T13:54:40;15.10;;;10.60;;
15553;SDS011;7878;44.632;10.942;2023-02-28T14:05:32;16.27;;;10.73;;
15553;SDS011;7878;44.632;10.942;2023-02-28T14:08:04;20.53;;;11.03;;
15553;SDS011;7878;44.632;10.942;2023-02-28T14:10:45;16.30;;;11.53;;
15553;SDS011;7878;44.632;10.942;2023-02-28T14:16:20;15.70;;;12.00;;
15553;SDS011;7878;44.632;10.942;2023-02-28T14:19:11;15.03;;;11.97;;
15553;SDS011;7878;44.632;10.942;2023-02-28T14:21:58;17.33;;;13.57;;
15553;SDS011;7878;44.632;10.942;2023-02-28T14:27:48;19.87;;;13.57;;
15553;SDS011;7878;44.632;10.942;2023-02-28T14:30:43;19.90;;;14.73;;
15553;SDS011;7878;44.632;10.942;2023-02-28T14:33:26;25.53;;;15.07;;
15553;SDS011;7878;44.632;10.942;2023-02-28T14:36:26;22.03;;;15.37;;
15553;SDS011;7878;44.632;10.942;2023-02-28T14:38:59;19.07;;;15.37;;
15553;SDS011;7878;44.632;10.942;2023-02-28T14:44:01;28.63;;;16.23;;
15553;SDS011;7878;44.632;10.942;2023-02-28T14:46:38;18.70;;;14.10;;
15553;SDS011;7878;44.632;10.942;2023-02-28T14:49:05;27.67;;;15.23;;
15553;SDS011;7878;44.632;10.942;2023-02-28T14:51:37;24.63;;;17.03;;
15553;SDS011;7878;44.632;10.942;2023-02-28T14:54:03;27.60;;;17.03;;
15553;SDS011;7878;44.632;10.942;2023-02-28T14:56:36;23.73;;;15.70;;
15553;SDS011;7878;44.632;10.942;2023-02-28T14:59:04;24.97;;;17.43;;
15553;SDS011;7878;44.632;10.942;2023-02-28T15:01:46;26.43;;;17.73;;
15553;SDS011;7878;44.632;10.942;2023-02-28T15:04:16;28.10;;;20.50;;
15553;SDS011;7878;44.632;10.942;2023-02-28T15:09:40;24.50;;;17.23;;
15553;SDS011;7878;44.632;10.942;2023-02-28T15:12:06;22.70;;;17.03;;
15553;SDS011;7878;44.632;10.942;2023-02-28T15:14:32;25.80;;;18.03;;
15553;SDS011;7878;44.632;10.942;2023-02-28T15:17:05;26.17;;;18.23;;
15553;SDS011;7878;44.632;10.942;2023-02-28T15:19:37;32.10;;;18.27;;
15553;SDS011;7878;44.632;10.942;2023-02-28T15:22:14;25.80;;;18.73;;
15553;SDS011;7878;44.632;10.942;2023-02-28T15:24:45;28.83;;;19.47;;
15553;SDS011;7878;44.632;10.942;2023-02-28T15:27:25;32.40;;;21.53;;
15553;SDS011;7878;44.632;10.942;2023-02-28T15:30:16;28.27;;;19.53;;
15553;SDS011;7878;44.632;10.942;2023-02-28T15:32:46;35.53;;;22.30;;
15553;SDS011;7878;44.632;10.942;2023-02-28T15:35:33;29.90;;;21.27;;
15553;SDS011;7878;44.632;10.942;2023-02-28T15:40:37;27.10;;;20.13;;
15553;SDS011;7878;44.632;10.942;2023-02-28T15:43:07;26.37;;;20.43;;
15553;SDS011;7878;44.632;10.942;2023-02-28T15:53:34;28.47;;;20.87;;
15553;SDS011;7878;44.632;10.942;2023-02-28T15:56:05;25.43;;;18.63;;
15553;SDS011;7878;44.632;10.942;2023-02-28T15:58:47;28.50;;;19.57;;
15553;SDS011;7878;44.632;10.942;2023-02-28T16:01:18;27.80;;;19.40;;
15553;SDS011;7878;44.632;10.942;2023-02-28T16:03:50;26.10;;;17.70;;
15553;SDS011;7878;44.632;10.942;2023-02-28T16:06:24;28.07;;;19.07;;
15553;SDS011;7878;44.632;10.942;2023-02-28T16:08:51;26.63;;;19.27;;
15553;SDS011;7878;44.632;10.942;2023-02-28T16:11:18;30.60;;;18.53;;
15553;SDS011;7878;44.632;10.942;2023-02-28T16:13:46;19.80;;;16.97;;
15553;SDS011;7878;44.632;10.942;2023-02-28T16:16:15;28.57;;;19.43;;
15553;SDS011;7878;44.632;10.942;2023-02-28T16:18:42;24.20;;;17.07;;
15553;SDS011;7878;44.632;10.942;2023-02-28T16:21:08;29.00;;;17.73;;
15553;SDS011;7878;44.632;10.942;2023-02-28T16:23:34;22.10;;;16.77;;
15553;SDS011;7878;44.632;10.942;2023-02-28T16:25:59;22.63;;;17.27;;
15553;SDS011;7878;44.632;10.942;2023-02-28T16:28:28;24.53;;;16.97;;
15553;SDS011;7878;44.632;10.942;2023-02-28T16:31:03;21.87;;;16.60;;
15553;SDS011;7878;44.632;10.942;2023-02-28T16:33:32;23.30;;;16.60;;
15553;SDS011;7878;44.632;10.942;2023-02-28T16:35:59;25.57;;;17.77;;
15553;SDS011;7878;44.632;10.942;2023-02-28T16:38:25;26.33;;;17.23;;
15553;SDS011;7878;44.632;10.942;2023-02-28T16:40:51;28.87;;;17.80;;
15553;SDS011;7878;44.632;10.942;2023-02-28T16:43:22;30.33;;;18.10;;
15553;SDS011;7878;44.632;10.942;2023-02-28T16:45:52;36.97;;;22.10;;
15553;SDS011;7878;44.632;10.942;2023-02-28T16:48:26;26.40;;;18.50;;
15553;SDS011;7878;44.632;10.942;2023-02-28T16:50:52;32.50;;;19.10;;
15553;SDS011;7878;44.632;10.942;2023-02-28T16:53:17;34.20;;;18.83;;
15553;SDS011;7878;44.632;10.942;2023-02-28T16:55:43;26.07;;;18.17;;
15553;SDS011;7878;44.632;10.942;2023-02-28T16:58:12;27.50;;;18.63;;
15553;SDS011;7878;44.632;10.942;2023-02-28T17:00:40;27.07;;;18.13;;
15553;SDS011;7878;44.632;10.942;2023-02-28T17:03:09;26.83;;;18.80;;
15553;SDS011;7878;44.632;10.942;2023-02-28T17:05:55;26.73;;;19.23;;
15553;SDS011;7878;44.632;10.942;2023-02-28T17:08:21;25.80;;;20.43;;
15553;SDS011;7878;44.632;10.942;2023-02-28T17:10:46;35.10;;;19.47;;
15553;SDS011;7878;44.632;10.942;2023-02-28T17:13:12;28.37;;;19.77;;
15553;SDS011;7878;44.632;10.942;2023-02-28T17:15:38;27.13;;;18.47;;